Terminal Aerodrome Forecast
Issued by NWS

Home | Current Version | Previous Version | Text Only | Print | Product List | Glossary On
Versions: 1 2 3 4 5 6 7 8 9 10 11 12 13 14 15 16 17 18 19 20 21 22 23 24 25 26 27 28 29 30 31 32 33 34 35 36 37 38 39 40 41 42
000
FTAK31 PANC 211741
TAFACD
TAF
PACD 211741Z 2118/2218 32015G25KT 6SM -SHRASN OVC035
      TEMPO 2118/2122 3SM -RASN BR BKN020
     FM212200 31020G30KT 5SM -SHSNRA BR OVC025
     FM221200 33018KT 2SM -SHSN BKN012=

USA.gov is the U.S. government's official web portal to all federal, state and local government web resources and services.